createdAt,value
2018-05-10T00:00:27.602Z,19.1
2018-05-10T00:01:28.777Z,19
2018-05-10T00:02:29.916Z,19
2018-05-10T00:03:31.078Z,18.9
2018-05-10T00:04:32.342Z,18.9
2018-05-10T00:05:33.507Z,18.8
2018-05-10T00:06:34.751Z,18.8
2018-05-10T00:07:36.009Z,18.8
2018-05-10T00:08:37.634Z,18.9
2018-05-10T00:09:39.183Z,18.9
2018-05-10T00:10:40.358Z,18.8
2018-05-10T00:11:41.677Z,18.9
2018-05-10T00:12:42.868Z,18.7
2018-05-10T00:13:44.166Z,18.8
2018-05-10T00:14:45.289Z,18.7
2018-05-10T00:15:46.480Z,18.7
2018-05-10T00:16:48.057Z,18.7
2018-05-10T00:17:49.279Z,18.6
2018-05-10T00:18:50.429Z,18.6
2018-05-10T00:19:51.598Z,18.6
2018-05-10T00:20:52.854Z,18.6
2018-05-10T00:21:54.080Z,18.5
2018-05-10T00:22:55.264Z,18.5
2018-05-10T00:23:56.548Z,18.5
2018-05-10T00:24:57.749Z,18.4
2018-05-10T00:25:58.986Z,18.4
2018-05-10T00:27:00.161Z,18.3
2018-05-10T00:28:01.596Z,18.1
2018-05-10T00:29:03.064Z,18.3
2018-05-10T00:30:04.202Z,18.3
2018-05-10T00:31:05.364Z,18.3
2018-05-10T00:32:06.561Z,18.1
2018-05-10T00:33:07.710Z,18
2018-05-10T00:34:08.889Z,18.1
2018-05-10T00:35:10.034Z,18.2
2018-05-10T00:36:11.430Z,18.1
2018-05-10T00:37:12.938Z,18.1
2018-05-10T00:38:14.167Z,18.2
2018-05-10T00:39:15.492Z,18.1
2018-05-10T00:40:16.925Z,18.1
2018-05-10T00:41:18.293Z,18
2018-05-10T00:42:19.549Z,18
2018-05-10T00:43:21.117Z,17.9
2018-05-10T00:44:23.228Z,17.9
2018-05-10T00:45:24.559Z,18
2018-05-10T00:46:25.798Z,18
2018-05-10T00:47:27.331Z,17.9
2018-05-10T00:48:28.902Z,17.9
2018-05-10T00:49:30.176Z,18
2018-05-10T00:50:31.774Z,17.9
2018-05-10T00:51:33.156Z,17.8
2018-05-10T00:52:34.909Z,17.7
2018-05-10T00:53:36.330Z,17.7
2018-05-10T00:54:37.464Z,17.5
2018-05-10T00:55:38.664Z,17.6
2018-05-10T00:56:39.806Z,17.5
2018-05-10T00:57:40.992Z,17.5
2018-05-10T00:58:42.155Z,17.5
2018-05-10T00:59:43.284Z,17.3
2018-05-10T01:00:44.459Z,17.5
2018-05-10T01:01:45.621Z,17.5
2018-05-10T01:02:46.798Z,17.4
2018-05-10T01:03:48.008Z,17.4
2018-05-10T01:04:49.200Z,17.4
2018-05-10T01:05:50.310Z,17.4
2018-05-10T01:06:51.446Z,17.4
2018-05-10T01:07:52.646Z,17.4
2018-05-10T01:08:53.766Z,17.4
2018-05-10T01:09:54.889Z,17.4
2018-05-10T01:10:56.047Z,17.4
2018-05-10T01:11:57.191Z,17.4
2018-05-10T01:12:58.398Z,17.3
2018-05-10T01:13:59.530Z,17.4
2018-05-10T01:15:00.668Z,17.4
2018-05-10T01:16:01.825Z,17.4
2018-05-10T01:17:02.973Z,17.3
2018-05-10T01:18:04.143Z,17.2
2018-05-10T01:19:05.300Z,17.2
2018-05-10T01:20:06.504Z,17.1
2018-05-10T01:21:07.643Z,17
2018-05-10T01:22:08.808Z,17
2018-05-10T01:23:09.998Z,17
2018-05-10T01:24:11.146Z,17
2018-05-10T01:25:12.278Z,17
2018-05-10T01:26:13.482Z,17
2018-05-10T01:27:15.758Z,16.9
2018-05-10T01:28:16.927Z,16.9
2018-05-10T01:29:18.083Z,16.9
2018-05-10T01:30:19.229Z,16.8
2018-05-10T01:31:20.411Z,16.9
2018-05-10T01:32:21.549Z,16.9
2018-05-10T01:33:22.753Z,16.9
2018-05-10T01:34:23.884Z,16.8
2018-05-10T01:35:25.021Z,16.9
2018-05-10T01:36:26.150Z,16.8
2018-05-10T01:37:27.275Z,16.8
2018-05-10T01:38:28.472Z,16.8
2018-05-10T01:39:29.640Z,16.9
2018-05-10T01:40:30.792Z,16.9
2018-05-10T01:41:31.953Z,16.9
2018-05-10T01:42:33.090Z,16.9
2018-05-10T01:43:34.278Z,16.9
2018-05-10T01:44:35.405Z,16.8
2018-05-10T01:45:36.534Z,16.7
2018-05-10T01:46:38.081Z,16.6
2018-05-10T01:47:42.023Z,16.7
2018-05-10T01:48:43.215Z,16.7
2018-05-10T01:49:44.367Z,16.6
2018-05-10T01:50:45.539Z,16.7
2018-05-10T01:51:46.679Z,16.7
2018-05-10T01:52:47.815Z,16.7
2018-05-10T01:53:49.352Z,16.8
2018-05-10T01:54:50.466Z,16.7
2018-05-10T01:55:51.604Z,16.7
2018-05-10T01:56:52.835Z,16.6
2018-05-10T01:57:53.875Z,16.6
2018-05-10T01:58:55.076Z,16.6
2018-05-10T01:59:56.203Z,16.6
2018-05-10T02:00:57.350Z,16.5
2018-05-10T02:01:58.495Z,16.6
2018-05-10T02:02:59.621Z,16.6
2018-05-10T02:04:00.793Z,16.6
2018-05-10T02:05:01.994Z,16.6
2018-05-10T02:06:03.130Z,16.5
2018-05-10T02:07:04.259Z,16.6
2018-05-10T02:08:05.406Z,16.5
2018-05-10T02:09:06.646Z,16.5
2018-05-10T02:10:07.793Z,16.5
2018-05-10T02:11:09.010Z,16.5
2018-05-10T02:12:10.140Z,16.5
2018-05-10T02:13:11.284Z,16.5
2018-05-10T02:14:12.546Z,16.5
2018-05-10T02:15:13.682Z,16.5
2018-05-10T02:16:14.821Z,16.5
2018-05-10T02:17:15.963Z,16.5
2018-05-10T02:18:17.112Z,16.5
2018-05-10T02:19:18.277Z,16.4
2018-05-10T02:20:19.401Z,16.3
2018-05-10T02:21:20.530Z,16.3
2018-05-10T02:22:21.710Z,16.3
2018-05-10T02:23:22.826Z,16.2
2018-05-10T02:24:24.145Z,16.2
2018-05-10T02:25:25.318Z,16.1
2018-05-10T02:26:26.474Z,16.1
2018-05-10T02:27:27.603Z,16.1
2018-05-10T02:28:28.768Z,16
2018-05-10T02:29:29.930Z,16.1
2018-05-10T02:30:31.063Z,16.1
2018-05-10T02:31:32.174Z,16
2018-05-10T02:32:33.307Z,16
2018-05-10T02:33:34.462Z,15.9
2018-05-10T02:34:35.643Z,16
2018-05-10T02:35:36.771Z,16
2018-05-10T02:36:37.943Z,16
2018-05-10T02:37:39.176Z,16
2018-05-10T02:38:40.402Z,16
2018-05-10T02:39:41.906Z,16.1
2018-05-10T02:40:43.046Z,16.1
2018-05-10T02:41:44.186Z,16
2018-05-10T02:42:45.350Z,16.1
2018-05-10T02:43:46.504Z,16
2018-05-10T02:44:47.670Z,16
2018-05-10T02:45:48.853Z,16.1
2018-05-10T02:46:50.001Z,16.1
2018-05-10T02:47:51.131Z,16.1
2018-05-10T02:48:52.272Z,16.1
2018-05-10T02:49:53.468Z,16.1
2018-05-10T02:50:54.606Z,16.1
2018-05-10T02:51:55.726Z,16.1
2018-05-10T02:52:56.930Z,16.1
2018-05-10T02:53:58.055Z,16
2018-05-10T02:54:59.468Z,15.9
2018-05-10T02:56:00.618Z,15.9
2018-05-10T02:57:01.810Z,15.9
2018-05-10T02:58:02.964Z,16
2018-05-10T02:59:04.386Z,15.8
2018-05-10T03:00:05.727Z,15.8
2018-05-10T03:01:06.935Z,15.8
2018-05-10T03:02:08.059Z,15.9
2018-05-10T03:03:09.222Z,15.8
2018-05-10T03:04:10.350Z,15.9
2018-05-10T03:05:11.519Z,15.8
2018-05-10T03:06:12.678Z,15.8
2018-05-10T03:07:13.855Z,15.7
2018-05-10T03:08:14.994Z,15.7
2018-05-10T03:09:16.175Z,15.8
2018-05-10T03:10:17.329Z,15.6
2018-05-10T03:11:18.482Z,15.6
2018-05-10T03:12:19.607Z,15.8
2018-05-10T03:13:20.782Z,15.8
2018-05-10T03:14:21.937Z,15.6
2018-05-10T03:15:23.117Z,15.7
2018-05-10T03:16:24.276Z,15.6
2018-05-10T03:17:25.422Z,15.7
2018-05-10T03:18:26.627Z,15.7
2018-05-10T03:19:27.790Z,15.5
2018-05-10T03:20:28.998Z,15.5
2018-05-10T03:21:30.131Z,15.5
2018-05-10T03:22:31.296Z,15.4
2018-05-10T03:23:32.433Z,15.6
2018-05-10T03:24:33.561Z,15.5
2018-05-10T03:25:34.803Z,15.3
2018-05-10T03:26:35.955Z,15.6
2018-05-10T03:27:37.098Z,15.7
2018-05-10T03:28:38.229Z,15.7
2018-05-10T03:29:39.403Z,15.5
2018-05-10T03:30:40.580Z,15.6
2018-05-10T03:31:41.739Z,15.6
2018-05-10T03:32:42.892Z,15.6
2018-05-10T03:33:44.053Z,15.5
2018-05-10T03:34:45.162Z,15.7
2018-05-10T03:35:46.348Z,15.7
2018-05-10T03:36:47.491Z,15.6
2018-05-10T03:37:48.641Z,15.5
2018-05-10T03:38:49.794Z,15.5
2018-05-10T03:39:50.946Z,15.5
2018-05-10T03:40:52.159Z,15.4
2018-05-10T03:41:53.289Z,15.6
2018-05-10T03:42:54.415Z,16.2
2018-05-10T03:43:55.533Z,15.9
2018-05-10T03:44:56.681Z,15.7
2018-05-10T03:45:57.864Z,15.6
2018-05-10T03:46:59.045Z,15.6
2018-05-10T03:48:00.213Z,15.6
2018-05-10T03:49:01.362Z,15.5
2018-05-10T03:50:02.500Z,15.6
2018-05-10T03:51:03.752Z,15.6
2018-05-10T03:52:05.173Z,15.5
2018-05-10T03:53:06.303Z,15.5
2018-05-10T03:54:07.418Z,15.6
2018-05-10T03:55:08.614Z,15.7
2018-05-10T03:56:09.930Z,15.5
2018-05-10T03:57:11.058Z,15.5
2018-05-10T03:58:12.197Z,15.6
2018-05-10T03:59:13.347Z,15.6
2018-05-10T04:00:14.478Z,15.6
2018-05-10T04:01:15.656Z,15.6
2018-05-10T04:02:16.844Z,15.5
2018-05-10T04:03:17.982Z,15.6
2018-05-10T04:04:19.150Z,15.6
2018-05-10T04:05:20.276Z,15.6
2018-05-10T04:06:21.462Z,15.6
2018-05-10T04:07:22.631Z,15.6
2018-05-10T04:08:23.747Z,15.6
2018-05-10T04:09:24.880Z,15.7
2018-05-10T04:10:25.996Z,15.7
2018-05-10T04:11:27.190Z,15.7
2018-05-10T04:12:28.305Z,15.6
2018-05-10T04:13:29.489Z,15.6
2018-05-10T04:14:30.781Z,15.7
2018-05-10T04:15:31.945Z,15.8
2018-05-10T04:16:33.076Z,15.7
2018-05-10T04:17:34.223Z,15.9
2018-05-10T04:18:35.402Z,16
2018-05-10T04:19:36.470Z,16.1
2018-05-10T04:20:37.617Z,16.3
2018-05-10T04:21:38.931Z,16.5
2018-05-10T04:22:40.168Z,16.6
2018-05-10T04:23:41.318Z,16.8
2018-05-10T04:24:42.571Z,17
2018-05-10T04:25:43.731Z,17.1
2018-05-10T04:26:44.936Z,17.2
2018-05-10T04:27:46.134Z,17.4
2018-05-10T04:28:47.266Z,17.6
2018-05-10T04:29:48.414Z,17.8
2018-05-10T04:30:49.549Z,17.9
2018-05-10T04:31:50.762Z,18.1
2018-05-10T04:32:51.929Z,18.4
2018-05-10T04:33:53.081Z,18.5
2018-05-10T04:34:54.212Z,18.8
2018-05-10T04:35:55.373Z,19
2018-05-10T04:36:56.559Z,19
2018-05-10T04:37:57.706Z,19.2
2018-05-10T04:38:58.879Z,19.4
2018-05-10T04:40:00.020Z,19.6
2018-05-10T04:41:01.170Z,19.8
2018-05-10T04:42:02.522Z,20.1
2018-05-10T04:43:03.682Z,20.4
2018-05-10T04:44:04.832Z,20.5
2018-05-10T04:45:05.973Z,20.5
2018-05-10T04:46:07.129Z,20.8
2018-05-10T04:47:08.342Z,20.9
2018-05-10T04:48:09.527Z,21
2018-05-10T04:49:10.683Z,21.2
2018-05-10T04:50:11.838Z,21.4
2018-05-10T04:51:12.998Z,21.7
2018-05-10T04:52:14.303Z,21.9
2018-05-10T04:53:15.515Z,22.1
2018-05-10T04:54:16.650Z,22.2
2018-05-10T04:55:17.802Z,22.5
2018-05-10T04:56:18.983Z,22.6
2018-05-10T04:57:20.175Z,22.6
2018-05-10T04:58:21.333Z,22.9
2018-05-10T04:59:22.751Z,23
2018-05-10T05:00:23.870Z,23.2
2018-05-10T05:01:25.021Z,23.4
2018-05-10T05:02:26.206Z,23.5
2018-05-10T05:03:27.348Z,23.8
2018-05-10T05:04:28.459Z,24.1
2018-05-10T05:05:29.612Z,24.2
2018-05-10T05:06:30.748Z,24.4
2018-05-10T05:07:31.922Z,24.7
2018-05-10T05:08:33.051Z,24.7
2018-05-10T05:09:34.177Z,24.8
2018-05-10T05:10:35.292Z,25
2018-05-10T05:11:36.424Z,25.2
2018-05-10T05:12:37.638Z,25.1
2018-05-10T05:13:38.774Z,25.5
2018-05-10T05:14:39.973Z,25.7
2018-05-10T05:15:41.103Z,25.8
2018-05-10T05:16:42.233Z,26
2018-05-10T05:17:43.395Z,26.3
2018-05-10T05:18:44.539Z,26.5
2018-05-10T05:19:45.709Z,26.5
2018-05-10T05:20:46.859Z,26.6
2018-05-10T05:21:47.986Z,26.5
2018-05-10T05:22:49.179Z,27
2018-05-10T05:23:50.334Z,27
2018-05-10T05:24:51.468Z,26.5
2018-05-10T05:25:52.605Z,27
2018-05-10T05:26:53.748Z,26.7
2018-05-10T05:27:54.930Z,26.7
2018-05-10T05:28:56.064Z,27.2
2018-05-10T05:29:57.247Z,26.5
2018-05-10T05:30:58.405Z,26.8
2018-05-10T05:31:59.589Z,27.8
2018-05-10T05:33:00.762Z,27.1
2018-05-10T05:34:01.897Z,27.2
2018-05-10T05:35:03.048Z,26.6
2018-05-10T05:36:04.194Z,26.1
2018-05-10T05:37:05.339Z,25.7
2018-05-10T05:38:06.522Z,25.6
2018-05-10T05:39:07.667Z,25.6
2018-05-10T05:40:08.851Z,25.8
2018-05-10T05:41:10.090Z,25.7
2018-05-10T05:42:11.118Z,25.7
2018-05-10T05:43:12.394Z,25.2
2018-05-10T05:44:13.466Z,25.2
2018-05-10T05:45:14.590Z,25.4
2018-05-10T05:46:15.753Z,25.2
2018-05-10T05:47:16.967Z,25.4
2018-05-10T05:48:18.248Z,25.6
2018-05-10T05:49:19.372Z,26
2018-05-10T05:50:20.530Z,25.7
2018-05-10T05:51:21.701Z,25.8
2018-05-10T05:52:22.863Z,25.6
2018-05-10T05:53:24.093Z,25.6
2018-05-10T05:54:25.229Z,26.5
2018-05-10T05:55:26.354Z,26.1
2018-05-10T05:56:27.777Z,26.1
2018-05-10T05:57:28.884Z,25.4
2018-05-10T05:58:30.246Z,25.9
2018-05-10T05:59:31.386Z,26
2018-05-10T06:00:32.523Z,26.3
2018-05-10T06:01:33.701Z,26.6
2018-05-10T06:02:34.827Z,26.8
2018-05-10T06:03:36.010Z,26.4
2018-05-10T06:04:37.123Z,26.2
2018-05-10T06:05:38.310Z,25.8
2018-05-10T06:06:39.443Z,26.3
2018-05-10T06:07:40.600Z,27.6
2018-05-10T06:08:41.812Z,27.9
2018-05-10T06:09:42.975Z,27.6
2018-05-10T06:10:44.128Z,27.4
2018-05-10T06:11:45.278Z,28.2
2018-05-10T06:12:46.420Z,28.6
2018-05-10T06:13:47.622Z,28.1
2018-05-10T06:14:48.951Z,28.1
2018-05-10T06:15:50.283Z,28.1
2018-05-10T06:16:51.427Z,27.9
2018-05-10T06:17:52.595Z,27.8
2018-05-10T06:18:53.801Z,27.8
2018-05-10T06:19:54.937Z,27.4
2018-05-10T06:20:56.070Z,26.9
2018-05-10T06:21:57.198Z,26.9
2018-05-10T06:23:00.256Z,27
2018-05-10T06:24:01.655Z,27.3
2018-05-10T06:25:02.819Z,27.5
2018-05-10T06:26:04.015Z,27.6
2018-05-10T06:27:05.154Z,27.4
2018-05-10T06:28:07.044Z,27.4
2018-05-10T06:29:09.104Z,26.9
2018-05-10T06:30:10.267Z,27.2
2018-05-10T06:31:11.391Z,28.1
2018-05-10T06:32:12.721Z,28.5
2018-05-10T06:33:13.987Z,28.9
2018-05-10T06:34:15.177Z,28.6
2018-05-10T06:35:16.312Z,28.6
2018-05-10T06:36:17.457Z,28.6
2018-05-10T06:37:18.592Z,28.7
2018-05-10T06:38:19.786Z,28.5
2018-05-10T06:39:20.971Z,28
2018-05-10T06:40:22.119Z,28.2
2018-05-10T06:41:23.332Z,27.9
2018-05-10T06:42:24.412Z,28.4
2018-05-10T06:43:25.538Z,28.3
2018-05-10T06:44:26.757Z,28.4
2018-05-10T06:45:27.878Z,28.8
2018-05-10T06:46:29.031Z,28.8
2018-05-10T06:47:30.202Z,28.7
2018-05-10T06:48:31.463Z,28.8
2018-05-10T06:49:32.660Z,29
2018-05-10T06:50:33.779Z,28.8
2018-05-10T06:51:34.912Z,29.1
2018-05-10T06:52:36.212Z,29.1
2018-05-10T06:53:37.666Z,29.3
2018-05-10T06:54:38.901Z,29.5
2018-05-10T06:55:40.029Z,29.8
2018-05-10T06:56:41.197Z,28.9
2018-05-10T06:57:42.309Z,29.2
2018-05-10T06:58:43.422Z,29.5
2018-05-10T06:59:44.646Z,30.2
2018-05-10T07:00:45.799Z,29.9
2018-05-10T07:01:46.935Z,30.9
2018-05-10T07:02:48.078Z,31
2018-05-10T07:03:49.232Z,30.5
2018-05-10T07:04:50.450Z,30.5
2018-05-10T07:05:51.607Z,30.3
2018-05-10T07:06:52.775Z,30.9
2018-05-10T07:07:53.907Z,30.6
2018-05-10T07:08:55.055Z,31.6
2018-05-10T07:09:56.555Z,30.9
2018-05-10T07:10:57.409Z,30.4
2018-05-10T07:11:58.601Z,30.5
2018-05-10T07:12:59.747Z,30.2
2018-05-10T07:14:00.921Z,30.4
2018-05-10T07:15:02.174Z,30.1
2018-05-10T07:16:03.335Z,30.2
2018-05-10T07:17:04.939Z,30.4
2018-05-10T07:18:06.574Z,30.2
2018-05-10T07:19:07.746Z,30.1
2018-05-10T07:20:08.943Z,31.1
2018-05-10T07:21:10.135Z,30.6
2018-05-10T07:22:11.335Z,30.4
2018-05-10T07:23:12.730Z,30.3
2018-05-10T07:24:14.005Z,30.5
2018-05-10T07:25:15.305Z,30.4
2018-05-10T07:26:16.340Z,30.2
2018-05-10T07:27:17.501Z,30.1
2018-05-10T07:28:18.648Z,29.7
2018-05-10T07:29:19.825Z,29.8
2018-05-10T07:30:21.171Z,29.9
2018-05-10T07:31:22.308Z,29.9
2018-05-10T07:32:24.464Z,30.1
2018-05-10T07:33:25.600Z,30.5
2018-05-10T07:34:26.868Z,31.1
2018-05-10T07:35:28.196Z,30.6
2018-05-10T07:36:29.347Z,30.5
2018-05-10T07:37:30.492Z,30.4
2018-05-10T07:38:31.669Z,30.3
2018-05-10T07:39:32.843Z,30.3
2018-05-10T07:40:34.118Z,30.1
2018-05-10T07:41:35.328Z,30.1
2018-05-10T07:42:36.432Z,30.2
2018-05-10T07:43:37.559Z,30.8
2018-05-10T07:44:38.718Z,30.5
2018-05-10T07:45:40.288Z,30.4
2018-05-10T07:46:42.450Z,30.3
2018-05-10T07:47:43.640Z,30.4
2018-05-10T07:48:44.782Z,30.7
2018-05-10T07:49:45.944Z,31.8
2018-05-10T07:50:47.212Z,31.1
2018-05-10T07:51:48.461Z,30.8
2018-05-10T07:52:49.614Z,31.8
2018-05-10T07:53:50.895Z,31.5
2018-05-10T07:54:52.055Z,31.2
2018-05-10T07:55:53.231Z,31.7
2018-05-10T07:56:54.372Z,31.4
2018-05-10T07:57:55.539Z,31
2018-05-10T07:58:56.674Z,30.8
2018-05-10T07:59:57.837Z,31.6
2018-05-10T08:00:59.208Z,31.6
2018-05-10T08:02:00.447Z,31.2
2018-05-10T08:03:01.647Z,31
2018-05-10T08:04:02.803Z,31
2018-05-10T08:05:03.925Z,30.6
2018-05-10T08:06:05.117Z,30.8
2018-05-10T08:07:06.273Z,30.8
2018-05-10T08:08:07.930Z,30.7
2018-05-10T08:09:09.099Z,30.5
2018-05-10T08:10:10.268Z,30.5
2018-05-10T08:11:11.459Z,31.2
2018-05-10T08:12:12.752Z,31.3
2018-05-10T08:13:13.960Z,31.4
2018-05-10T08:14:15.127Z,31.5
2018-05-10T08:15:16.284Z,32
2018-05-10T08:16:17.523Z,31.9
2018-05-10T08:17:18.716Z,31.6
2018-05-10T08:18:19.857Z,31.3
2018-05-10T08:19:21.007Z,32.3
2018-05-10T08:20:22.146Z,31.8
2018-05-10T08:21:23.327Z,31.4
2018-05-10T08:22:24.480Z,31.8
2018-05-10T08:23:25.698Z,31.3
2018-05-10T08:24:26.855Z,31.1
2018-05-10T08:25:28.014Z,31.9
2018-05-10T08:26:29.188Z,32.3
2018-05-10T08:27:30.403Z,31.7
2018-05-10T08:28:31.562Z,31.7
2018-05-10T08:29:32.702Z,32
2018-05-10T08:30:33.865Z,31.5
2018-05-10T08:31:35.057Z,31.2
2018-05-10T08:32:36.179Z,31.2
2018-05-10T08:33:37.343Z,31.6
2018-05-10T08:34:38.499Z,31.9
2018-05-10T08:35:39.729Z,31.9
2018-05-10T08:36:40.963Z,31.9
2018-05-10T08:37:42.089Z,31.4
2018-05-10T08:38:43.225Z,31.4
2018-05-10T08:39:44.367Z,31.2
2018-05-10T08:40:45.544Z,31.3
2018-05-10T08:41:46.743Z,31.4
2018-05-10T08:42:47.933Z,31.6
2018-05-10T08:43:49.075Z,31.9
2018-05-10T08:44:50.231Z,32
2018-05-10T08:45:51.412Z,31.5
2018-05-10T08:46:52.703Z,31.4
2018-05-10T08:47:53.842Z,31.5
2018-05-10T08:48:55.016Z,31.5
2018-05-10T08:49:56.155Z,31.7
2018-05-10T08:50:57.287Z,31.6
2018-05-10T08:51:58.555Z,31.4
2018-05-10T08:52:59.672Z,31.5
2018-05-10T08:54:00.807Z,31.5
2018-05-10T08:55:02.008Z,31.5
2018-05-10T08:56:03.153Z,31.5
2018-05-10T08:57:04.363Z,31.6
2018-05-10T08:58:05.751Z,31.7
2018-05-10T08:59:06.916Z,31.7
2018-05-10T09:00:08.084Z,31.7
2018-05-10T09:01:09.229Z,31.8
2018-05-10T09:02:10.637Z,31.7
2018-05-10T09:03:11.862Z,31.8
2018-05-10T09:04:13.004Z,31.7
2018-05-10T09:05:14.171Z,31.8
2018-05-10T09:06:15.328Z,31.8
2018-05-10T09:07:16.530Z,31.8
2018-05-10T09:08:17.681Z,31.8
2018-05-10T09:09:18.835Z,31.9
2018-05-10T09:10:20.096Z,31.9
2018-05-10T09:11:21.311Z,31.9
2018-05-10T09:12:22.545Z,31.9
2018-05-10T09:13:23.696Z,32
2018-05-10T09:14:24.852Z,31.9
2018-05-10T09:15:26.003Z,31.8
2018-05-10T09:16:27.166Z,31.9
2018-05-10T09:17:28.379Z,32
2018-05-10T09:18:29.535Z,32
2018-05-10T09:19:30.678Z,32
2018-05-10T09:20:31.871Z,32
2018-05-10T09:21:33.020Z,32
2018-05-10T09:22:34.206Z,32
2018-05-10T09:23:35.367Z,32
2018-05-10T09:24:36.530Z,32
2018-05-10T09:25:37.680Z,32
2018-05-10T09:26:51.931Z,32
2018-05-10T09:27:53.168Z,32
2018-05-10T09:28:54.324Z,31.9
2018-05-10T09:29:55.497Z,31.9
2018-05-10T09:30:56.657Z,31.9
2018-05-10T09:31:57.815Z,31.9
2018-05-10T09:32:59.046Z,32
2018-05-10T09:34:00.310Z,32
2018-05-10T09:35:01.483Z,32.1
2018-05-10T09:36:05.086Z,32
2018-05-10T09:37:06.223Z,32
2018-05-10T09:38:07.564Z,32
2018-05-10T09:38:19.557Z,31.9
2018-05-10T09:39:20.882Z,31.8
2018-05-10T09:40:21.955Z,31.9
2018-05-10T09:41:23.148Z,31.6
2018-05-10T09:42:24.343Z,31.8
2018-05-10T09:43:25.569Z,31.8
2018-05-10T09:44:26.722Z,32
2018-05-10T09:45:27.894Z,32.1
2018-05-10T09:46:29.089Z,32.2
2018-05-10T09:47:30.353Z,32.2
2018-05-10T09:48:31.580Z,32.3
2018-05-10T09:49:32.815Z,32.3
2018-05-10T09:50:34.021Z,32.3
2018-05-10T09:51:35.153Z,32.2
2018-05-10T09:52:36.356Z,32.2
2018-05-10T09:53:37.544Z,32.2
2018-05-10T09:54:38.794Z,32.1
2018-05-10T09:55:40.051Z,32.1
2018-05-10T09:56:41.276Z,32.2
2018-05-10T09:57:42.475Z,32.2
2018-05-10T09:58:43.748Z,32.1
2018-05-10T09:59:45.002Z,32.2
2018-05-10T10:00:46.134Z,32
2018-05-10T10:01:47.332Z,32.1
2018-05-10T10:02:48.543Z,32.1
2018-05-10T10:03:49.947Z,32.1
2018-05-10T10:04:51.176Z,32.1
2018-05-10T10:05:52.353Z,32
2018-05-10T10:06:53.580Z,32
2018-05-10T10:07:54.825Z,32.2
2018-05-10T10:08:55.995Z,32.2
2018-05-10T10:09:57.279Z,32.1
2018-05-10T10:10:58.530Z,32
2018-05-10T10:11:59.771Z,31.9
2018-05-10T10:13:00.999Z,31.9
2018-05-10T10:14:02.203Z,31.9
2018-05-10T10:15:03.430Z,31.8
2018-05-10T10:16:04.651Z,31.9
2018-05-10T10:17:05.824Z,32
2018-05-10T10:18:07.025Z,31.9
2018-05-10T10:19:08.256Z,31.9
2018-05-10T10:20:09.430Z,31.9
2018-05-10T10:21:10.619Z,31.9
2018-05-10T10:22:11.776Z,31.9
2018-05-10T10:23:12.964Z,31.8
2018-05-10T10:24:14.165Z,31.8
2018-05-10T10:25:15.326Z,31.8
2018-05-10T10:26:21.761Z,31.8
2018-05-10T10:27:23.968Z,31.8
2018-05-10T10:28:25.076Z,31.8
2018-05-10T10:29:26.271Z,31.8
2018-05-10T10:30:35.302Z,31.8
2018-05-10T10:31:36.541Z,31.8
2018-05-10T10:32:37.686Z,31.7
2018-05-10T10:33:38.872Z,31.6
2018-05-10T10:34:40.237Z,31.7
2018-05-10T10:35:41.358Z,31.7
2018-05-10T10:36:42.519Z,31.7
2018-05-10T10:37:49.109Z,31.7
2018-05-10T10:38:50.302Z,31.7
2018-05-10T10:39:52.714Z,31.6
2018-05-10T10:40:53.862Z,31.7
2018-05-10T10:41:55.026Z,31.6
2018-05-10T10:42:56.195Z,31.6
2018-05-10T10:43:58.402Z,31.5
2018-05-10T10:44:59.636Z,31.5
2018-05-10T10:46:00.927Z,31.6
2018-05-10T10:47:02.120Z,31.6
2018-05-10T10:48:03.295Z,31.6
2018-05-10T10:49:04.427Z,31.6
2018-05-10T10:50:05.653Z,31.5
2018-05-10T10:51:06.869Z,31.5
2018-05-10T10:52:08.021Z,31.5
2018-05-10T10:53:09.164Z,31.5
2018-05-10T10:54:10.307Z,31.4
2018-05-10T10:55:11.482Z,31.4
2018-05-10T10:56:12.646Z,31.4
2018-05-10T10:57:13.812Z,31.4
2018-05-10T10:58:14.981Z,31.4
2018-05-10T10:59:16.168Z,31.4
2018-05-10T11:00:17.359Z,31.3
2018-05-10T11:01:31.180Z,31.4
2018-05-10T11:02:32.393Z,31.4
2018-05-10T11:03:36.220Z,31.3
2018-05-10T11:04:37.422Z,31.1
2018-05-10T11:05:38.820Z,31.2
2018-05-10T11:06:40.032Z,31.2
2018-05-10T11:07:41.240Z,31.2
2018-05-10T11:08:42.451Z,31.2
2018-05-10T11:09:43.661Z,31.3
2018-05-10T11:10:44.857Z,31.2
2018-05-10T11:11:46.055Z,31.1
2018-05-10T11:12:47.224Z,31.2
2018-05-10T11:13:48.693Z,31.2
2018-05-10T11:14:49.869Z,31.2
2018-05-10T11:15:51.188Z,31.1
2018-05-10T11:16:52.439Z,30.9
2018-05-10T11:17:53.683Z,30.9
2018-05-10T11:18:55.020Z,30.9
2018-05-10T11:19:56.279Z,30.9
2018-05-10T11:20:57.637Z,31
2018-05-10T11:21:58.746Z,31
2018-05-10T11:22:59.898Z,31
2018-05-10T11:24:01.077Z,31
2018-05-10T11:25:02.240Z,31
2018-05-10T11:26:03.444Z,30.9
2018-05-10T11:27:04.603Z,31
2018-05-10T11:28:06.254Z,30.8
2018-05-10T11:29:08.502Z,30.9
2018-05-10T11:30:10.043Z,30.8
2018-05-10T11:31:11.443Z,30.7
2018-05-10T11:32:12.616Z,30.7
2018-05-10T11:33:15.627Z,30.7
2018-05-10T11:34:23.808Z,30.7
2018-05-10T11:35:24.950Z,30.6
2018-05-10T11:36:26.439Z,30.6
2018-05-10T11:37:27.620Z,30.6
2018-05-10T11:38:28.809Z,30.5
2018-05-10T11:39:29.973Z,30.5
2018-05-10T11:40:31.116Z,30.5
2018-05-10T11:41:32.330Z,30.5
2018-05-10T11:42:33.513Z,30.5
2018-05-10T11:43:34.731Z,30.5
2018-05-10T11:44:36.004Z,30.5
2018-05-10T11:45:37.053Z,30.5
2018-05-10T11:46:38.218Z,30.5
2018-05-10T11:47:39.395Z,30.5
2018-05-10T11:48:40.652Z,30.3
2018-05-10T11:49:41.733Z,30.4
2018-05-10T11:50:42.899Z,30.4
2018-05-10T11:51:44.175Z,30.4
2018-05-10T11:52:45.380Z,30.4
2018-05-10T11:53:46.546Z,30.3
2018-05-10T11:54:47.723Z,30.3
2018-05-10T11:55:48.874Z,30.3
2018-05-10T11:56:50.065Z,30.2
2018-05-10T11:57:51.258Z,30.3
2018-05-10T11:58:52.408Z,30.3
2018-05-10T11:59:53.576Z,30.2
2018-05-10T12:00:54.725Z,30.2
2018-05-10T12:01:55.971Z,30.2
2018-05-10T12:02:57.133Z,30.2
2018-05-10T12:03:58.272Z,30.2
2018-05-10T12:04:59.446Z,30.1
2018-05-10T12:06:00.618Z,30.1
2018-05-10T12:07:02.030Z,30
2018-05-10T12:08:03.190Z,30
2018-05-10T12:09:04.355Z,30
2018-05-10T12:10:05.518Z,30
2018-05-10T12:11:06.711Z,30
2018-05-10T12:12:07.922Z,29.9
2018-05-10T12:13:09.081Z,29.9
2018-05-10T12:14:10.243Z,30
2018-05-10T12:15:11.392Z,29.9
2018-05-10T12:16:13.583Z,29.8
2018-05-10T12:17:14.781Z,29.9
2018-05-10T12:18:15.929Z,29.9
2018-05-10T12:19:17.218Z,29.9
2018-05-10T12:20:18.381Z,29.9
2018-05-10T12:21:20.641Z,29.9
2018-05-10T12:22:21.948Z,29.8
2018-05-10T12:23:23.089Z,29.8
2018-05-10T12:24:24.255Z,29.7
2018-05-10T12:25:25.394Z,29.7
2018-05-10T12:26:26.535Z,29.7
2018-05-10T12:27:27.792Z,29.7
2018-05-10T12:28:28.934Z,29.7
2018-05-10T12:29:30.370Z,29.6
2018-05-10T12:30:31.633Z,29.6
2018-05-10T12:31:32.685Z,29.6
2018-05-10T12:32:33.868Z,29.6
2018-05-10T12:33:35.023Z,29.5
2018-05-10T12:34:36.170Z,29.4
2018-05-10T12:35:37.318Z,29.4
2018-05-10T12:36:38.462Z,29.3
2018-05-10T12:37:39.668Z,29.3
2018-05-10T12:38:40.803Z,29.2
2018-05-10T12:39:41.960Z,29.1
2018-05-10T12:40:43.117Z,29.3
2018-05-10T12:41:44.314Z,29.3
2018-05-10T12:42:45.501Z,29.3
2018-05-10T12:43:46.664Z,29.2
2018-05-10T12:44:47.813Z,29.2
2018-05-10T12:45:48.976Z,29.3
2018-05-10T12:46:50.133Z,29.2
2018-05-10T12:47:51.391Z,29.3
2018-05-10T12:48:53.597Z,29.3
2018-05-10T12:49:55.551Z,29.3
2018-05-10T12:50:56.720Z,29.3
2018-05-10T12:51:57.895Z,29.3
2018-05-10T12:52:59.109Z,29.3
2018-05-10T12:54:00.267Z,29.3
2018-05-10T12:55:01.491Z,29.2
2018-05-10T12:56:02.721Z,29.2
2018-05-10T12:57:03.914Z,29.2
2018-05-10T12:58:05.107Z,29.2
2018-05-10T12:59:06.227Z,29.1
2018-05-10T13:00:07.371Z,29.1
2018-05-10T13:01:08.511Z,29.1
2018-05-10T13:02:09.640Z,29.1
2018-05-10T13:03:10.835Z,29.1
2018-05-10T13:04:12.061Z,29.1
2018-05-10T13:05:13.278Z,29.1
2018-05-10T13:06:15.176Z,29.1
2018-05-10T13:07:16.327Z,29.2
2018-05-10T13:08:17.713Z,29.2
2018-05-10T13:09:18.877Z,29.1
2018-05-10T13:10:20.043Z,29.1
2018-05-10T13:11:21.185Z,29.1
2018-05-10T13:12:22.327Z,29.1
2018-05-10T13:13:23.584Z,29.1
2018-05-10T13:14:24.731Z,29.1
2018-05-10T13:15:25.928Z,29.1
2018-05-10T13:16:27.101Z,29.1
2018-05-10T13:17:28.258Z,29
2018-05-10T13:18:29.431Z,29
2018-05-10T13:19:30.716Z,29
2018-05-10T13:20:31.776Z,29
2018-05-10T13:21:32.971Z,29
2018-05-10T13:22:34.103Z,29
2018-05-10T13:23:35.314Z,29
2018-05-10T13:24:36.447Z,29
2018-05-10T13:25:37.660Z,29
2018-05-10T13:26:38.812Z,29
2018-05-10T13:27:39.950Z,28.9
2018-05-10T13:28:42.001Z,28.9
2018-05-10T13:29:43.199Z,28.9
2018-05-10T13:30:44.371Z,28.9
2018-05-10T13:31:45.514Z,28.9
2018-05-10T13:32:46.695Z,28.9
2018-05-10T13:33:47.894Z,28.9
2018-05-10T13:34:49.094Z,28.8
2018-05-10T13:35:50.242Z,28.8
2018-05-10T13:36:51.432Z,28.9
2018-05-10T13:37:52.651Z,28.7
2018-05-10T13:38:54.007Z,28.8
2018-05-10T13:39:55.163Z,28.8
2018-05-10T13:40:56.315Z,28.8